Time;durP1;ratioP1;P1;durP2;ratioP2;P2;SDS_P1;SDS_P2;PMS_P1;PMS_P2;Temp;Humidity;BMP_temperature;BMP_pressure;BME280_temperature;BME280_humidity;BME280_pressure;Samples;Min_cycle;Max_cycle;Signal;HPM_P1;HPM_P2
2020/12/30 00:00:21;;;;;;;;;;;18.00;37.80;;;;;;5086547;28;20050;-63
2020/12/30 00:02:47;;;;;;;4.72;2.50;;;17.90;37.70;;;;;;5107458;28;21300;-64
2020/12/30 00:05:13;;;;;;;;;;;17.90;37.40;;;;;;5079613;28;20484;-63
2020/12/30 00:07:40;;;;;;;4.43;1.90;;;17.90;37.50;;;;;;5109214;27;20310;-62
2020/12/30 00:10:12;;;;;;;6.07;2.13;;;17.80;37.70;;;;;;5105272;28;20066;-63
2020/12/30 00:12:39;;;;;;;2.22;1.17;;;17.80;37.90;;;;;;5106870;28;20044;-60
2020/12/30 00:15:10;;;;;;;7.10;2.03;;;17.70;37.90;;;;;;5103870;28;20048;-64
2020/12/30 00:17:40;;;;;;;6.13;1.23;;;17.70;38.30;;;;;;5102944;28;20032;-63
2020/12/30 00:20:09;;;;;;;6.70;1.40;;;17.60;38.30;;;;;;5110760;27;20516;-63
2020/12/30 00:22:36;;;;;;;2.75;1.35;;;17.50;38.00;;;;;;5108288;28;20067;-63
2020/12/30 00:25:05;;;;;;;8.73;1.95;;;17.50;37.90;;;;;;5110443;28;20535;-63
2020/12/30 00:27:31;;;;;;;7.30;2.75;;;17.50;38.10;;;;;;5105818;28;20052;-65
2020/12/30 00:29:58;;;;;;;7.97;2.85;;;17.40;38.20;;;;;;5108197;27;20074;-63
2020/12/30 00:32:25;;;;;;;8.82;3.20;;;17.40;38.20;;;;;;5104409;28;20051;-64
2020/12/30 00:34:52;;;;;;;5.60;3.10;;;17.30;38.30;;;;;;5104761;28;20096;-64
2020/12/30 00:37:18;;;;;;;;;;;17.20;38.50;;;;;;5089775;28;20080;-62
2020/12/30 00:39:44;;;;;;;11.35;3.58;;;17.20;38.80;;;;;;5088156;28;19937;-64
2020/12/30 00:42:11;;;;;;;8.77;3.15;;;17.10;39.00;;;;;;5102689;28;20057;-64
2020/12/30 00:44:37;;;;;;;;;;;17.00;38.90;;;;;;5104109;28;20057;-64
2020/12/30 00:47:03;;;;;;;12.43;5.22;;;17.00;38.80;;;;;;5104613;28;19937;-65
2020/12/30 00:49:30;;;;;;;;;;;16.90;39.10;;;;;;5105101;28;20201;-63
2020/12/30 00:51:57;;;;;;;8.77;3.10;;;16.90;39.30;;;;;;5088322;28;19943;-64
2020/12/30 00:54:25;;;;;;;5.95;2.10;;;16.80;39.50;;;;;;5107291;28;20123;-65
2020/12/30 00:56:52;;;;;;;7.38;2.00;;;16.80;39.70;;;;;;5106328;28;20092;-64
2020/12/30 00:59:20;;;;;;;11.45;2.33;;;16.60;39.90;;;;;;5110201;28;20551;-64
2020/12/30 01:01:53;;;;;;;5.95;1.65;;;16.60;40.10;;;;;;5106362;28;20496;-64
2020/12/30 01:04:21;;;;;;;17.10;3.08;;;16.60;40.30;;;;;;5106099;28;20514;-65
2020/12/30 01:06:50;;;;;;;5.60;1.98;;;16.50;40.40;;;;;;5084214;28;20074;-65
2020/12/30 01:09:17;;;;;;;14.05;2.00;;;16.40;40.50;;;;;;5106470;28;20108;-65
2020/12/30 01:11:43;;;;;;;3.35;1.98;;;16.40;40.70;;;;;;5106825;28;20407;-65
2020/12/30 01:14:11;;;;;;;6.57;1.70;;;16.40;40.90;;;;;;5107896;28;20053;-66
2020/12/30 01:16:37;;;;;;;11.88;1.67;;;16.30;41.10;;;;;;5105086;28;20050;-65
2020/12/30 01:19:06;;;;;;;4.43;1.85;;;16.20;41.30;;;;;;5106006;28;20050;-65
2020/12/30 01:21:39;;;;;;;10.68;2.03;;;16.20;41.80;;;;;;5107661;28;20049;-63
2020/12/30 01:24:06;;;;;;;14.70;2.15;;;16.10;42.00;;;;;;5107351;28;20044;-64
2020/12/30 01:26:32;;;;;;;;;;;16.10;42.50;;;;;;5086466;28;20057;-64
2020/12/30 01:28:58;;;;;;;14.20;2.83;;;15.90;42.70;;;;;;5109733;28;21418;-65
2020/12/30 01:31:28;;;;;;;;;;;15.90;43.00;;;;;;5083954;28;20043;-65
2020/12/30 01:33:54;;;;;;;32.28;3.60;;;15.80;43.30;;;;;;5106255;28;19940;-65
2020/12/30 01:36:21;;;;;;;;;;;15.80;43.60;;;;;;5088453;28;20049;-65
2020/12/30 01:38:50;;;;;;;5.00;1.40;;;15.70;43.70;;;;;;5107750;28;19997;-65
2020/12/30 01:41:17;;;;;;;5.28;1.63;;;15.60;43.90;;;;;;5106361;28;20070;-65
2020/12/30 01:44:00;;;;;;;4.38;1.70;;;15.60;44.10;;;;;;5107724;28;20532;-64
2020/12/30 01:46:42;;;;;;;8.90;2.20;;;15.60;44.40;;;;;;5103711;28;20050;-66
2020/12/30 01:49:12;;;;;;;3.33;1.50;;;15.50;44.70;;;;;;5088574;28;20091;-65
2020/12/30 01:51:41;;;;;;;4.35;1.60;;;15.50;45.00;;;;;;5101574;28;20060;-64
2020/12/30 01:54:11;;;;;;;7.57;1.52;;;15.40;45.30;;;;;;5106439;28;20063;-63
2020/12/30 01:56:38;;;;;;;4.30;1.40;;;15.40;45.50;;;;;;5106793;28;20049;-64
2020/12/30 01:59:07;;;;;;;8.68;1.50;;;15.30;45.80;;;;;;5102263;28;20419;-65
2020/12/30 02:01:37;;;;;;;5.88;1.67;;;15.20;46.00;;;;;;5101878;28;20516;-65
2020/12/30 02:04:06;;;;;;;10.82;2.00;;;15.20;46.40;;;;;;5103984;28;20066;-64
2020/12/30 02:06:34;;;;;;;7.45;2.30;;;15.10;46.60;;;;;;5107011;28;20050;-65
2020/12/30 02:09:05;;;;;;;8.55;2.63;;;15.10;47.00;;;;;;5104880;28;20079;-65
2020/12/30 02:11:34;;;;;;;9.30;2.40;;;15.00;47.20;;;;;;5104569;28;20051;-65
2020/12/30 02:14:04;;;;;;;11.45;2.22;;;15.00;47.10;;;;;;5107037;28;20420;-65
2020/12/30 02:16:31;;;;;;;3.78;1.50;;;14.90;46.90;;;;;;5087737;28;20048;-65
2020/12/30 02:18:59;;;;;;;13.70;2.03;;;14.90;46.70;;;;;;5107834;28;20056;-66
2020/12/30 02:21:25;;;;;;;6.80;1.55;;;14.90;46.60;;;;;;5107230;28;20063;-63
2020/12/30 02:23:55;;;;;;;22.02;2.17;;;14.80;47.00;;;;;;5102609;28;20058;-61
2020/12/30 02:26:22;;;;;;;7.65;1.38;;;14.80;46.80;;;;;;5082560;28;20076;-64
2020/12/30 02:28:48;;;;;;;;;;;14.90;46.60;;;;;;5104906;28;20544;-64
2020/12/30 02:31:14;;;;;;;7.05;2.38;;;14.80;46.60;;;;;;5105421;28;19994;-65
2020/12/30 02:33:40;;;;;;;;;;;14.80;46.70;;;;;;5105196;28;20096;-65
2020/12/30 02:36:07;;;;;;;4.47;1.58;;;14.80;46.80;;;;;;5085641;28;20031;-65
2020/12/30 02:38:33;;;;;;;;;;;14.70;47.00;;;;;;5103706;28;20517;-65
2020/12/30 02:41:00;;;;;;;2.75;1.30;;;14.60;46.80;;;;;;5104643;28;19932;-66
2020/12/30 02:43:27;;;;;;;4.75;1.33;;;14.60;47.00;;;;;;5103555;28;20063;-66
2020/12/30 02:45:53;;;;;;;3.03;1.33;;;14.60;46.90;;;;;;5089351;28;20026;-66
2020/12/30 02:48:20;;;;;;;;;;;14.60;46.60;;;;;;5104033;28;20092;-67
2020/12/30 02:50:46;;;;;;;3.08;1.20;;;14.60;46.60;;;;;;5102408;28;19951;-67
2020/12/30 02:53:12;;;;;;;;;;;14.60;46.60;;;;;;5083433;28;20114;-67
2020/12/30 02:55:39;;;;;;;11.93;1.27;;;14.60;46.40;;;;;;5105756;28;19915;-67
2020/12/30 02:58:05;;;;;;;3.85;1.40;;;14.60;46.30;;;;;;5105296;28;20497;-65
2020/12/30 03:00:32;;;;;;;4.68;1.63;;;14.60;46.10;;;;;;5109600;28;20035;-66
2020/12/30 03:02:59;;;;;;;2.53;1.15;;;14.60;46.00;;;;;;5107321;28;20368;-66
2020/12/30 03:05:25;;;;;;;;;;;14.50;45.90;;;;;;5106553;28;20134;-66
2020/12/30 03:07:51;;;;;;;7.43;1.52;;;14.50;45.80;;;;;;5107013;28;19961;-65
2020/12/30 03:10:17;;;;;;;;;;;14.50;45.80;;;;;;5107409;28;20088;-65
2020/12/30 03:12:44;;;;;;;3.83;1.20;;;14.50;45.90;;;;;;5105971;28;19948;-67
2020/12/30 03:15:10;;;;;;;;;;;14.50;46.00;;;;;;5085683;28;20041;-66
2020/12/30 03:17:37;;;;;;;3.90;1.33;;;14.60;46.30;;;;;;5107214;28;20392;-66
2020/12/30 03:20:03;;;;;;;5.75;1.50;;;14.50;46.40;;;;;;5092527;28;20052;-67
2020/12/30 03:22:30;;;;;;;4.63;1.73;;;14.50;46.60;;;;;;5091408;28;20083;-67
2020/12/30 03:24:56;;;;;;;;;;;14.50;46.70;;;;;;5111892;28;20058;-68
2020/12/30 03:27:23;;;;;;;5.38;1.38;;;14.50;46.80;;;;;;5108509;28;20310;-67
2020/12/30 03:29:49;;;;;;;4.00;1.50;;;14.40;46.80;;;;;;5110716;28;20065;-66
2020/12/30 03:32:15;;;;;;;;;;;14.40;46.60;;;;;;5105319;28;20120;-67
2020/12/30 03:34:42;;;;;;;4.72;1.80;;;14.40;46.70;;;;;;5104252;28;19961;-67
2020/12/30 03:37:15;;;;;;;4.75;1.58;;;14.30;46.60;;;;;;5088023;28;20153;-67
2020/12/30 03:39:42;;;;;;;4.97;1.60;;;14.30;46.50;;;;;;5108055;28;20069;-66
2020/12/30 03:42:08;;;;;;;;;;;14.30;46.60;;;;;;5081494;28;20068;-66
2020/12/30 03:44:34;;;;;;;1.40;0.80;;;14.20;46.80;;;;;;5106798;28;19988;-65
2020/12/30 03:47:01;;;;;;;;;;;14.20;46.80;;;;;;5107842;27;20063;-66
2020/12/30 03:49:28;;;;;;;3.97;0.98;;;14.20;47.00;;;;;;5090216;28;19970;-66
2020/12/30 03:51:54;;;;;;;;;;;14.10;47.10;;;;;;5089629;28;20063;-66
2020/12/30 03:54:23;;;;;;;7.60;2.58;;;14.10;47.20;;;;;;5106303;28;19944;-65
2020/12/30 03:56:50;;;;;;;8.35;2.10;;;14.10;47.50;;;;;;5103699;28;20097;-65
2020/12/30 03:59:16;;;;;;;;;;;14.10;47.70;;;;;;5101640;28;20085;-64
2020/12/30 04:01:42;;;;;;;3.70;1.48;;;14.10;47.90;;;;;;5102664;28;20023;-65
2020/12/30 04:04:08;;;;;;;;;;;13.90;48.10;;;;;;5088089;28;20173;-67
2020/12/30 04:06:35;;;;;;;6.63;1.33;;;13.90;48.30;;;;;;5104593;28;20381;-66
2020/12/30 04:09:01;;;;;;;2.85;1.95;;;13.80;48.30;;;;;;5105346;28;20068;-66
2020/12/30 04:11:28;;;;;;;;;;;13.70;48.40;;;;;;5103855;28;20104;-66
2020/12/30 04:13:54;;;;;;;15.43;2.38;;;13.80;48.70;;;;;;5108372;28;20027;-65
2020/12/30 04:16:22;;;;;;;9.00;2.25;;;13.80;48.70;;;;;;5105175;28;20542;-66
2020/12/30 04:18:49;;;;;;;6.47;2.60;;;13.70;48.50;;;;;;5105530;27;20074;-66
2020/12/30 04:21:23;;;;;;;6.03;3.85;;;13.60;48.70;;;;;;5105303;28;20075;-65
2020/12/30 04:23:53;;;;;;;10.52;4.53;;;13.50;48.80;;;;;;5103618;28;20143;-65
2020/12/30 04:26:21;;;;;;;7.70;3.80;;;13.50;49.10;;;;;;5104519;28;20058;-66
2020/12/30 04:28:47;;;;;;;14.10;3.55;;;13.50;49.40;;;;;;5106375;28;20097;-66
2020/12/30 04:31:15;;;;;;;9.43;4.32;;;13.40;49.70;;;;;;5087155;28;20439;-66
2020/12/30 04:33:42;;;;;;;11.07;3.92;;;13.50;50.20;;;;;;5106709;28;20062;-66
2020/12/30 04:36:14;;;;;;;12.05;3.75;;;13.40;50.10;;;;;;5104913;28;20066;-66
2020/12/30 04:38:41;;;;;;;11.75;4.20;;;13.30;50.50;;;;;;5106770;28;20071;-65
2020/12/30 04:41:16;;;;;;;20.38;4.22;;;13.30;50.70;;;;;;5108034;28;20064;-65
2020/12/30 04:43:45;;;;;;;12.68;4.15;;;13.20;51.10;;;;;;5107364;28;20154;-65
2020/12/30 04:46:13;;;;;;;8.82;3.58;;;13.10;51.50;;;;;;5106033;28;20058;-65
2020/12/30 04:48:41;;;;;;;5.18;2.67;;;13.10;51.60;;;;;;5091054;28;20089;-65
2020/12/30 04:51:13;;;;;;;10.52;2.53;;;13.00;51.30;;;;;;5108437;28;20057;-66
2020/12/30 04:53:40;;;;;;;11.80;3.03;;;12.90;51.40;;;;;;5102909;28;20050;-66
2020/12/30 04:56:09;;;;;;;12.40;2.78;;;12.80;51.50;;;;;;5106260;28;20141;-67
2020/12/30 04:58:37;;;;;;;5.90;2.70;;;12.80;52.00;;;;;;5089008;28;20055;-66
2020/12/30 05:01:07;;;;;;;10.43;2.95;;;12.80;52.00;;;;;;5106987;28;20070;-66
2020/12/30 05:03:46;;;;;;;10.10;2.50;;;12.70;52.00;;;;;;5104210;28;20462;-66
2020/12/30 05:06:16;;;;;;;13.40;3.33;;;12.70;52.40;;;;;;5104376;28;21518;-65
2020/12/30 05:08:46;;;;;;;7.22;2.63;;;12.60;52.50;;;;;;5088117;28;20082;-66
2020/12/30 05:11:13;;;;;;;9.15;3.03;;;12.50;52.70;;;;;;5110001;28;20169;-67
2020/12/30 05:13:39;;;;;;;13.68;6.00;;;12.50;52.80;;;;;;5104473;28;20404;-65
2020/12/30 05:16:05;;;;;;;;;;;12.30;52.80;;;;;;5085533;28;20049;-67
2020/12/30 05:18:32;;;;;;;21.35;9.73;;;12.30;53.20;;;;;;5091024;28;19929;-67
2020/12/30 05:20:59;;;;;;;14.20;9.82;;;12.30;53.00;;;;;;5104860;28;20065;-66
2020/12/30 05:23:27;;;;;;;22.45;11.10;;;12.30;53.00;;;;;;5105643;28;20048;-66
2020/12/30 05:25:54;;;;;;;18.65;9.93;;;12.30;53.10;;;;;;5102785;28;20048;-67
2020/12/30 05:28:22;;;;;;;;;;;12.30;53.30;;;;;;5103477;28;20412;-67
2020/12/30 05:30:48;;;;;;;;;;;12.30;53.30;;;;;;5091428;28;19954;-66
2020/12/30 05:33:14;;;;;;;23.52;8.80;;;12.10;53.30;;;;;;5104733;28;19987;-68
2020/12/30 05:35:41;;;;;;;16.73;7.55;;;12.10;53.30;;;;;;5108579;28;20086;-66
2020/12/30 05:38:07;;;;;;;;;;;12.10;53.30;;;;;;5109399;28;20065;-67
2020/12/30 05:40:34;;;;;;;14.90;4.97;;;12.00;53.30;;;;;;5107384;28;20341;-67
2020/12/30 05:43:30;;;;;;;22.55;5.03;;;12.00;52.90;;;;;;5105962;28;20071;-67
2020/12/30 05:45:56;;;;;;;14.52;4.50;;;12.00;52.60;;;;;;5088676;28;20072;-67
2020/12/30 05:48:22;;;;;;;;;;;12.00;52.40;;;;;;5106580;28;20100;-66
2020/12/30 05:50:57;;;;;;;19.05;5.10;;;11.90;51.90;;;;;;5088344;28;20204;-67
2020/12/30 05:53:25;;;;;;;19.00;5.72;;;11.90;52.10;;;;;;5104859;28;20391;-67
2020/12/30 05:56:09;;;;;;;21.15;7.10;;;11.90;52.30;;;;;;5105559;28;20059;-67
2020/12/30 05:58:42;;;;;;;25.77;7.45;;;11.90;52.50;;;;;;5084988;28;20468;-68
2020/12/30 06:01:27;;;;;;;24.45;6.95;;;11.80;52.40;;;;;;5102277;28;20102;-68
2020/12/30 06:04:17;;;;;;;25.40;7.07;;;11.80;52.70;;;;;;5104804;28;20060;-66
2020/12/30 06:06:46;;;;;;;21.08;7.68;;;11.80;52.70;;;;;;5107393;28;20061;-66
2020/12/30 06:09:22;;;;;;;22.55;6.70;;;11.70;52.80;;;;;;5106819;28;20099;-67
2020/12/30 06:11:54;;;;;;;14.65;6.65;;;11.70;53.10;;;;;;5096423;28;20085;-66
2020/12/30 06:14:21;;;;;;;23.02;6.78;;;11.70;53.30;;;;;;5106430;28;20222;-68
2020/12/30 06:16:48;;;;;;;15.23;5.70;;;11.60;53.10;;;;;;5101905;28;20071;-67
2020/12/30 06:19:15;;;;;;;16.40;6.22;;;11.60;52.80;;;;;;5102121;28;20106;-66
2020/12/30 06:21:46;;;;;;;24.13;6.70;;;11.60;53.40;;;;;;5103512;28;20054;-67
2020/12/30 06:24:15;;;;;;;23.13;5.90;;;11.60;53.10;;;;;;5101399;28;20512;-67
2020/12/30 06:26:43;;;;;;;22.60;6.07;;;11.50;53.40;;;;;;5098389;28;20086;-67
2020/12/30 06:29:15;;;;;;;22.48;6.53;;;11.40;53.40;;;;;;5106883;28;20430;-67
2020/12/30 06:31:47;;;;;;;23.42;7.25;;;11.30;53.10;;;;;;5107005;28;20084;-68
2020/12/30 06:34:15;;;;;;;22.02;6.18;;;11.30;52.60;;;;;;5106608;28;20058;-68
2020/12/30 06:36:43;;;;;;;18.58;6.20;;;11.30;52.40;;;;;;5106054;28;20069;-67
2020/12/30 06:39:23;;;;;;;18.50;5.95;;;11.30;52.10;;;;;;5102084;28;20068;-68
2020/12/30 06:42:03;;;;;;;19.10;6.40;;;11.30;51.00;;;;;;5085306;28;20058;-67
2020/12/30 06:44:43;;;;;;;18.38;5.72;;;11.30;50.10;;;;;;5102430;28;20142;-67
2020/12/30 06:47:12;;;;;;;22.10;5.55;;;11.30;49.70;;;;;;5091659;28;20201;-67
2020/12/30 06:49:38;;;;;;;20.83;5.88;;;11.30;49.60;;;;;;5093526;28;20093;-67
2020/12/30 06:52:25;;;;;;;25.38;5.15;;;11.30;49.50;;;;;;5086887;28;20065;-67
2020/12/30 06:54:51;;;;;;;16.45;4.80;;;11.30;50.00;;;;;;5103972;28;20070;-66
2020/12/30 06:57:37;;;;;;;;;;;11.20;49.40;;;;;;5110915;28;20534;-67
2020/12/30 07:00:31;;;;;;;18.08;5.00;;;11.20;49.20;;;;;;5095032;28;19975;-67
2020/12/30 07:03:14;;;;;;;15.85;4.55;;;11.20;48.90;;;;;;5106621;28;20130;-67
2020/12/30 07:05:42;;;;;;;14.50;4.47;;;11.20;49.00;;;;;;5093238;28;20071;-67
2020/12/30 07:08:10;;;;;;;15.38;4.55;;;11.20;49.00;;;;;;5108521;28;20514;-66
2020/12/30 07:10:45;;;;;;;12.85;4.32;;;11.20;49.20;;;;;;5108466;27;20090;-67
2020/12/30 07:13:37;;;;;;;19.50;4.78;;;11.20;49.20;;;;;;5109934;28;20511;-66
2020/12/30 07:16:20;;;;;;;17.40;4.32;;;11.20;50.00;;;;;;5090460;28;20072;-68
2020/12/30 07:18:50;;;;;;;12.20;4.70;;;11.10;49.70;;;;;;5089664;28;20427;-67
2020/12/30 07:21:17;;;;;;;17.50;4.88;;;11.10;49.90;;;;;;5110765;28;20065;-67
2020/12/30 07:23:46;;;;;;;27.20;4.65;;;11.00;50.00;;;;;;5111802;27;20134;-66
2020/12/30 07:26:18;;;;;;;11.95;3.80;;;11.00;49.70;;;;;;5099808;28;20079;-66
2020/12/30 07:28:45;;;;;;;15.07;4.68;;;11.00;49.70;;;;;;5107664;28;20085;-67
2020/12/30 07:31:13;;;;;;;9.73;3.92;;;10.90;50.10;;;;;;5091001;28;20073;-68
2020/12/30 07:33:42;;;;;;;21.23;4.88;;;10.80;49.50;;;;;;5080866;28;20065;-67
2020/12/30 07:36:09;;;;;;;19.13;4.47;;;10.90;49.40;;;;;;5096432;28;20073;-67
2020/12/30 07:38:37;;;;;;;13.23;4.13;;;10.80;49.30;;;;;;5078193;28;20063;-67
2020/12/30 07:41:08;;;;;;;16.67;4.32;;;10.70;49.20;;;;;;5085318;28;20072;-68
2020/12/30 07:43:48;;;;;;;16.98;4.40;;;10.70;49.50;;;;;;5110606;27;20054;-68
2020/12/30 07:46:16;;;;;;;14.55;5.05;;;10.70;49.50;;;;;;5107541;28;20057;-67
2020/12/30 07:48:43;;;;;;;17.52;5.95;;;10.70;50.10;;;;;;5104981;28;20143;-67
2020/12/30 07:51:09;;;;;;;;;;;10.50;49.90;;;;;;5098316;28;20479;-67
2020/12/30 07:53:36;;;;;;;20.70;5.10;;;10.50;50.40;;;;;;5103432;28;19957;-67
2020/12/30 07:56:02;;;;;;;;;;;10.50;50.20;;;;;;5105745;28;20151;-67
2020/12/30 07:58:29;;;;;;;22.90;5.30;;;10.40;49.90;;;;;;5107326;28;20349;-68
2020/12/30 08:00:56;;;;;;;15.55;5.10;;;10.40;50.20;;;;;;5093070;28;20096;-68
2020/12/30 08:03:28;;;;;;;20.67;5.47;;;10.40;50.10;;;;;;5107166;27;20151;-68
2020/12/30 08:05:58;;;;;;;20.45;5.63;;;10.30;50.60;;;;;;5089558;28;20075;-67
2020/12/30 08:08:25;;;;;;;13.88;6.13;;;10.30;50.40;;;;;;5106815;28;20443;-68
2020/12/30 08:10:55;;;;;;;;;;;10.30;50.80;;;;;;5107474;28;20156;-68
2020/12/30 08:13:21;;;;;;;29.98;7.32;;;10.30;50.50;;;;;;5108443;27;20401;-67
2020/12/30 08:15:52;;;;;;;25.15;7.70;;;10.20;50.80;;;;;;5107726;28;20121;-69
2020/12/30 08:18:19;;;;;;;26.35;8.77;;;10.10;51.20;;;;;;5092450;28;20082;-69
2020/12/30 08:20:45;;;;;;;32.97;9.40;;;10.10;50.80;;;;;;5088565;28;20068;-68
2020/12/30 08:23:17;;;;;;;36.47;10.93;;;10.10;50.90;;;;;;5087237;28;20066;-67
2020/12/30 08:25:47;;;;;;;27.77;9.10;;;10.00;50.50;;;;;;5101739;28;20083;-66
2020/12/30 08:28:14;;;;;;;24.25;9.07;;;10.00;50.70;;;;;;5105684;28;20159;-66
2020/12/30 08:30:43;;;;;;;37.33;10.48;;;10.10;50.70;;;;;;5087055;28;20117;-67
2020/12/30 08:33:15;;;;;;;37.25;11.68;;;10.00;50.50;;;;;;5106548;28;20057;-66
2020/12/30 08:35:47;;;;;;;29.17;11.13;;;10.00;50.80;;;;;;5081685;28;20072;-66
2020/12/30 08:38:20;;;;;;;41.22;11.52;;;10.00;51.00;;;;;;5077148;28;20580;-67
2020/12/30 08:40:54;;;;;;;36.40;12.77;;;9.90;51.40;;;;;;5091060;28;20069;-67
2020/12/30 08:43:38;;;;;;;48.00;13.48;;;9.90;51.20;;;;;;5086941;28;20069;-67
2020/12/30 08:46:19;;;;;;;40.45;14.77;;;9.80;51.40;;;;;;5083603;28;20100;-67
2020/12/30 08:48:49;;;;;;;46.17;16.05;;;9.70;50.70;;;;;;5106021;28;20498;-67
2020/12/30 08:51:29;;;;;;;36.45;16.80;;;9.80;50.90;;;;;;5086974;28;20067;-68
2020/12/30 08:53:56;;;;;;;53.75;16.23;;;9.80;50.10;;;;;;5105414;28;20117;-67
2020/12/30 08:56:23;;;;;;;47.38;17.02;;;9.80;50.20;;;;;;5089967;28;20097;-67
2020/12/30 08:58:57;;;;;;;43.45;17.52;;;9.90;50.10;;;;;;5075302;28;20076;-67
2020/12/30 09:01:26;;;;;;;45.90;18.00;;;9.90;50.00;;;;;;5087607;28;20077;-67
2020/12/30 09:03:53;;;;;;;45.40;18.52;;;9.80;50.70;;;;;;5107637;28;20064;-68
2020/12/30 09:06:28;;;;;;;48.72;19.25;;;9.80;51.00;;;;;;5087892;28;20607;-68
2020/12/30 09:09:12;;;;;;;47.42;18.63;;;9.80;50.60;;;;;;5087506;28;20546;-70
2020/12/30 09:11:44;;;;;;;44.97;18.95;;;9.70;50.30;;;;;;5105740;28;20074;-66
2020/12/30 09:14:22;;;;;;;44.78;17.77;;;9.70;50.80;;;;;;5067895;28;20508;-67
2020/12/30 09:16:51;;;;;;;48.80;17.63;;;9.70;50.70;;;;;;5090542;28;20072;-68
2020/12/30 09:19:19;;;;;;;52.47;19.77;;;9.70;50.60;;;;;;5106653;28;20068;-67
2020/12/30 09:21:45;;;;;;;47.72;17.77;;;9.70;51.00;;;;;;5105216;28;20065;-67
2020/12/30 09:24:12;;;;;;;;;;;9.60;50.70;;;;;;5090037;28;20547;-67
2020/12/30 09:26:39;;;;;;;43.00;17.50;;;9.70;51.60;;;;;;5089440;28;19951;-67
2020/12/30 09:29:17;;;;;;;48.35;17.17;;;9.60;50.80;;;;;;5086111;27;20219;-66
2020/12/30 09:31:55;;;;;;;45.50;17.88;;;9.60;51.20;;;;;;5092470;28;20068;-67
2020/12/30 09:34:26;;;;;;;50.78;17.70;;;9.60;50.60;;;;;;5090218;28;20160;-66
2020/12/30 09:36:58;;;;;;;51.10;18.20;;;9.50;50.40;;;;;;5088190;28;20071;-69
2020/12/30 09:39:27;;;;;;;43.50;16.23;;;9.50;51.00;;;;;;5089613;28;20189;-69
2020/12/30 09:42:04;;;;;;;42.38;15.30;;;9.50;51.10;;;;;;5085474;28;20106;-68
2020/12/30 09:44:31;;;;;;;;;;;9.50;51.30;;;;;;5086915;28;20070;-67
2020/12/30 09:46:59;;;;;;;42.30;17.23;;;9.40;51.00;;;;;;5087211;28;20012;-70
2020/12/30 09:49:26;;;;;;;42.70;16.50;;;9.40;50.50;;;;;;5096417;28;20113;-68
2020/12/30 09:51:55;;;;;;;;;;;9.30;50.60;;;;;;5095925;28;20066;-67
2020/12/30 09:54:25;;;;;;;46.50;16.65;;;9.30;50.70;;;;;;5080770;28;20033;-67
2020/12/30 09:56:52;;;;;;;45.20;16.73;;;9.30;50.80;;;;;;5101873;28;20065;-67
2020/12/30 09:59:24;;;;;;;43.10;16.30;;;9.30;51.70;;;;;;5090067;28;20597;-68
2020/12/30 10:01:51;;;;;;;41.95;15.27;;;9.30;51.30;;;;;;5083974;28;20110;-67
2020/12/30 10:04:18;;;;;;;35.67;14.38;;;9.60;88.90;;;;;;5077590;28;20084;-67
2020/12/30 10:06:48;;;;;;;31.67;12.95;;;8.70;62.90;;;;;;5100729;28;20106;-67
2020/12/30 10:09:14;;;;;;;29.55;10.85;;;9.10;68.80;;;;;;5088811;28;20597;-67
2020/12/30 10:11:41;;;;;;;26.88;9.30;;;9.00;46.50;;;;;;5103262;28;20041;-66
2020/12/30 10:14:08;;;;;;;23.40;9.23;;;9.20;63.10;;;;;;5087659;28;20023;-67
2020/12/30 10:16:35;;;;;;;28.05;8.93;;;8.90;53.80;;;;;;5106866;28;20024;-67
2020/12/30 10:19:01;;;;;;;17.92;8.73;;;9.10;64.30;;;;;;5090408;28;20530;-67
2020/12/30 10:21:30;;;;;;;20.88;7.95;;;9.20;71.30;;;;;;5090772;28;20047;-67
2020/12/30 10:23:59;;;;;;;21.60;8.05;;;8.90;56.20;;;;;;5106981;28;20096;-67
2020/12/30 10:26:26;;;;;;;27.40;7.75;;;9.30;50.50;;;;;;5089960;28;20371;-67
2020/12/30 10:28:52;;;;;;;19.85;7.13;;;8.70;50.70;;;;;;5090281;28;20036;-67
2020/12/30 10:31:19;;;;;;;19.15;7.50;;;9.30;81.30;;;;;;5106187;28;20547;-68
2020/12/30 10:33:49;;;;;;;19.48;6.80;;;9.30;46.10;;;;;;5089833;28;20043;-67
2020/12/30 10:36:16;;;;;;;17.17;6.50;;;9.30;46.60;;;;;;5090285;28;20124;-67
2020/12/30 10:38:43;;;;;;;16.38;6.57;;;9.30;46.00;;;;;;5112093;28;20037;-67
2020/12/30 10:41:16;;;;;;;20.65;6.60;;;9.50;46.60;;;;;;5109036;28;20044;-67
2020/12/30 10:43:43;;;;;;;16.98;5.80;;;8.30;55.00;;;;;;5091762;28;20101;-67
2020/12/30 10:46:14;;;;;;;18.13;6.18;;;9.40;52.40;;;;;;5106326;28;20020;-68
2020/12/30 10:48:48;;;;;;;16.17;5.30;;;9.40;45.40;;;;;;5096254;28;20131;-68
2020/12/30 10:51:16;;;;;;;13.63;5.22;;;9.30;44.60;;;;;;5110586;28;20027;-67
2020/12/30 10:53:43;;;;;;;13.23;4.88;;;9.30;44.50;;;;;;5108521;28;20036;-67
2020/12/30 10:56:13;;;;;;;11.38;4.78;;;9.30;45.60;;;;;;5109385;28;20073;-67
2020/12/30 10:58:40;;;;;;;14.48;5.18;;;9.30;45.70;;;;;;5108375;27;20121;-67
2020/12/30 11:01:11;;;;;;;14.38;4.55;;;9.10;44.50;;;;;;5108928;28;20070;-68
2020/12/30 11:03:38;;;;;;;11.82;4.57;;;9.20;45.10;;;;;;5103903;28;20122;-68
2020/12/30 11:06:05;;;;;;;8.93;4.20;;;9.20;45.70;;;;;;5106839;28;20122;-68
2020/12/30 11:08:33;;;;;;;14.23;5.63;;;9.10;45.50;;;;;;5109593;28;20488;-67
2020/12/30 11:11:03;;;;;;;11.45;4.80;;;8.90;45.40;;;;;;5107642;28;20036;-68
2020/12/30 11:13:30;;;;;;;10.05;4.55;;;9.10;46.10;;;;;;5110285;27;20423;-68
2020/12/30 11:15:57;;;;;;;12.25;4.38;;;9.00;46.10;;;;;;5104817;28;20067;-67
2020/12/30 11:18:24;;;;;;;14.45;5.13;;;9.00;46.40;;;;;;5091277;28;20419;-67
2020/12/30 11:20:50;;;;;;;;;;;9.00;61.40;;;;;;5106832;27;21531;-68
2020/12/30 11:23:16;;;;;;;12.18;5.60;;;8.90;45.80;;;;;;5107823;27;19915;-67
2020/12/30 11:25:43;;;;;;;;;;;8.90;46.30;;;;;;5089251;28;20062;-68
2020/12/30 11:28:10;;;;;;;14.73;5.90;;;8.80;46.60;;;;;;5091548;28;19981;-67
2020/12/30 11:30:37;;;;;;;15.52;6.50;;;8.80;46.70;;;;;;5111662;28;20344;-68
2020/12/30 11:33:04;;;;;;;23.40;7.55;;;8.80;46.90;;;;;;5089364;28;20074;-68
2020/12/30 11:35:32;;;;;;;20.08;7.28;;;8.80;46.70;;;;;;5106283;28;20151;-68
2020/12/30 11:37:59;;;;;;;21.55;7.88;;;8.70;46.60;;;;;;5106380;28;20062;-68
2020/12/30 11:40:28;;;;;;;21.10;8.82;;;8.80;47.50;;;;;;5110975;28;20073;-66
2020/12/30 11:42:56;;;;;;;24.85;8.65;;;8.70;47.50;;;;;;5111905;27;20507;-67
2020/12/30 11:45:22;;;;;;;23.73;8.82;;;8.80;47.70;;;;;;5105264;28;20075;-66
2020/12/30 11:47:49;;;;;;;;;;;8.70;47.10;;;;;;5108381;28;20586;-67
2020/12/30 11:50:16;;;;;;;20.67;8.77;;;8.70;47.00;;;;;;5106497;28;20013;-67
2020/12/30 11:52:43;;;;;;;22.73;8.60;;;8.70;47.90;;;;;;5107298;28;20066;-67
2020/12/30 11:55:10;;;;;;;26.75;10.35;;;8.70;48.70;;;;;;5094044;28;20067;-67
2020/12/30 11:57:37;;;;;;;26.17;9.52;;;8.60;48.70;;;;;;5100327;28;20120;-69
2020/12/30 12:00:08;;;;;;;29.73;9.38;;;8.60;48.60;;;;;;5104819;28;20065;-67
2020/12/30 12:02:35;;;;;;;21.08;9.15;;;8.50;48.40;;;;;;5108084;28;20110;-67
2020/12/30 12:05:02;;;;;;;24.52;9.15;;;8.50;48.90;;;;;;5104973;28;20062;-67
2020/12/30 12:07:29;;;;;;;24.95;8.63;;;8.50;49.90;;;;;;5107768;28;20121;-66
2020/12/30 12:09:59;;;;;;;23.50;8.80;;;8.50;49.60;;;;;;5108024;28;20516;-66
2020/12/30 12:12:26;;;;;;;19.08;8.80;;;8.40;49.50;;;;;;5104577;27;20072;-66
2020/12/30 12:14:52;;;;;;;;;;;8.30;49.70;;;;;;5106958;28;20436;-66
2020/12/30 12:17:19;;;;;;;24.73;8.48;;;8.20;48.50;;;;;;5106952;27;19922;-67
2020/12/30 12:19:46;;;;;;;19.20;7.70;;;;;;;;;;5118116;27;20065;-67
2020/12/30 12:22:15;;;;;;;23.85;7.47;;;8.20;48.60;;;;;;5104537;28;20098;-66
2020/12/30 12:24:42;;;;;;;23.85;7.82;;;;;;;;;;5091058;28;20095;-66
2020/12/30 12:27:08;;;;;;;23.75;8.13;;;7.90;52.50;;;;;;5100902;28;20110;-66
2020/12/30 12:29:35;;;;;;;;;;;8.10;49.00;;;;;;5110025;28;20086;-67
2020/12/30 12:32:19;;;;;;;19.33;8.00;;;8.10;49.00;;;;;;5107980;28;20434;-67
2020/12/30 12:34:48;;;;;;;20.73;7.90;;;8.00;49.40;;;;;;5106076;28;20070;-67
2020/12/30 12:37:16;;;;;;;20.67;8.10;;;7.90;49.60;;;;;;5106074;28;20150;-66
2020/12/30 12:39:45;;;;;;;14.40;6.78;;;7.90;49.60;;;;;;5107351;28;20108;-66
2020/12/30 12:42:13;;;;;;;17.27;7.28;;;7.90;49.80;;;;;;5105339;28;20540;-66
2020/12/30 12:44:39;;;;;;;23.23;7.40;;;8.00;50.00;;;;;;5092998;28;20059;-66
2020/12/30 12:47:06;;;;;;;18.05;6.82;;;7.90;49.60;;;;;;5105715;28;20164;-65
2020/12/30 12:49:33;;;;;;;16.90;6.97;;;7.90;49.70;;;;;;5108513;28;20091;-66
2020/12/30 12:52:01;;;;;;;25.60;7.03;;;7.90;50.20;;;;;;5108390;28;20062;-65
2020/12/30 12:54:29;;;;;;;18.60;7.13;;;7.70;49.20;;;;;;5108237;28;20067;-66
2020/12/30 12:57:01;;;;;;;16.98;5.43;;;7.80;49.00;;;;;;5093070;28;20109;-66
2020/12/30 12:59:27;;;;;;;18.42;6.00;;;7.90;48.50;;;;;;5094797;28;20145;-67
2020/12/30 13:01:54;;;;;;;15.43;5.72;;;8.00;48.40;;;;;;5103435;28;20075;-67